createdAt,value
2017-10-15T00:00:07.774Z,95.80
2017-10-15T00:02:37.309Z,95.80
2017-10-15T00:05:07.326Z,95.90
2017-10-15T00:07:37.031Z,96.00
2017-10-15T00:10:06.094Z,96.00
2017-10-15T00:12:34.985Z,96.00
2017-10-15T00:15:04.538Z,96.10
2017-10-15T00:17:33.574Z,96.10
2017-10-15T00:20:02.968Z,96.10
2017-10-15T00:22:31.908Z,96.10
2017-10-15T00:25:01.518Z,96.10
2017-10-15T00:27:31.153Z,96.10
2017-10-15T00:29:59.926Z,96.10
2017-10-15T00:32:28.758Z,96.10
2017-10-15T00:34:58.164Z,96.20
2017-10-15T00:37:27.233Z,96.20
2017-10-15T00:39:56.059Z,96.20
2017-10-15T00:42:25.134Z,96.20
2017-10-15T00:44:54.126Z,96.20
2017-10-15T00:47:23.734Z,96.20
2017-10-15T00:49:52.604Z,96.20
2017-10-15T00:52:21.493Z,96.30
2017-10-15T00:54:50.714Z,96.30
2017-10-15T00:57:19.756Z,96.30
2017-10-15T00:59:48.718Z,96.30
2017-10-15T01:02:18.556Z,96.30
2017-10-15T01:04:47.598Z,96.30
2017-10-15T01:07:16.776Z,96.20
2017-10-15T01:09:45.718Z,96.30
2017-10-15T01:12:15.999Z,96.30
2017-10-15T01:14:45.151Z,96.30
2017-10-15T01:17:14.506Z,96.30
2017-10-15T01:19:43.423Z,96.30
2017-10-15T01:22:13.158Z,96.40
2017-10-15T01:24:42.109Z,96.40
2017-10-15T01:27:11.057Z,96.40
2017-10-15T01:29:40.447Z,96.50
2017-10-15T01:32:09.489Z,96.50
2017-10-15T01:34:38.321Z,96.40
2017-10-15T01:37:07.283Z,96.50
2017-10-15T01:39:37.562Z,96.50
2017-10-15T01:42:07.468Z,96.50
2017-10-15T01:44:36.626Z,96.60
2017-10-15T01:47:05.859Z,96.60
2017-10-15T01:49:34.946Z,96.70
2017-10-15T01:52:04.186Z,96.70
2017-10-15T01:54:33.398Z,96.60
2017-10-15T01:57:03.054Z,96.50
2017-10-15T01:59:32.465Z,96.50
2017-10-15T02:02:01.257Z,96.50
2017-10-15T02:04:30.161Z,96.40
2017-10-15T02:06:58.965Z,96.30
2017-10-15T02:09:28.572Z,96.30
2017-10-15T02:11:58.611Z,96.40
2017-10-15T02:14:27.548Z,96.40
2017-10-15T02:16:56.378Z,96.30
2017-10-15T02:19:26.420Z,96.40
2017-10-15T02:21:55.206Z,96.40
2017-10-15T02:24:24.130Z,96.30
2017-10-15T02:26:53.158Z,96.50
2017-10-15T02:29:22.970Z,96.40
2017-10-15T02:31:53.158Z,96.50
2017-10-15T02:34:22.001Z,96.50
2017-10-15T02:36:50.785Z,96.50
2017-10-15T02:39:19.626Z,96.60
2017-10-15T02:41:48.673Z,96.60
2017-10-15T02:44:18.108Z,96.60
2017-10-15T02:46:47.233Z,96.80
2017-10-15T02:49:17.146Z,96.70
2017-10-15T02:51:47.386Z,97.00
2017-10-15T02:54:17.230Z,97.10
2017-10-15T02:56:46.070Z,97.10
2017-10-15T02:59:15.636Z,96.90
2017-10-15T03:01:44.762Z,96.80
2017-10-15T03:04:14.222Z,96.90
2017-10-15T03:06:43.175Z,96.90
2017-10-15T03:09:12.821Z,96.90
2017-10-15T03:11:41.761Z,96.90
2017-10-15T03:14:11.466Z,96.90
2017-10-15T03:16:41.133Z,97.00
2017-10-15T03:19:10.143Z,96.90
2017-10-15T03:21:39.210Z,96.90
2017-10-15T03:24:08.341Z,96.90
2017-10-15T03:26:37.570Z,97.00
2017-10-15T03:29:06.371Z,97.00
2017-10-15T03:31:35.231Z,97.10
2017-10-15T03:34:05.307Z,97.00
2017-10-15T03:36:34.163Z,97.00
2017-10-15T03:39:03.025Z,97.00
2017-10-15T03:41:32.605Z,96.90
2017-10-15T03:44:01.485Z,96.90
2017-10-15T03:46:30.637Z,96.90
2017-10-15T03:48:59.636Z,96.90
2017-10-15T03:51:29.145Z,96.90
2017-10-15T03:53:58.134Z,97.00
2017-10-15T03:56:27.197Z,97.20
2017-10-15T03:58:57.094Z,97.00
2017-10-15T04:01:26.107Z,97.00
2017-10-15T04:03:55.272Z,97.00
2017-10-15T04:06:24.178Z,97.00
2017-10-15T04:08:53.249Z,97.00
2017-10-15T04:11:22.199Z,97.00
2017-10-15T04:13:51.245Z,97.00
2017-10-15T04:16:20.773Z,97.10
2017-10-15T04:18:50.446Z,97.10
2017-10-15T04:21:19.483Z,97.10
2017-10-15T04:23:49.038Z,97.00
2017-10-15T04:26:18.124Z,97.00
2017-10-15T04:28:47.567Z,97.00
2017-10-15T04:31:17.329Z,97.00
2017-10-15T04:33:46.170Z,97.00
2017-10-15T04:36:15.947Z,97.00
2017-10-15T04:38:45.496Z,97.00
2017-10-15T04:41:15.153Z,97.10
2017-10-15T04:43:44.200Z,97.10
2017-10-15T04:46:13.256Z,97.10
2017-10-15T04:48:42.298Z,97.10
2017-10-15T04:51:11.314Z,97.00
2017-10-15T04:53:40.412Z,97.00
2017-10-15T04:56:09.433Z,97.00
2017-10-15T04:58:39.776Z,97.10
2017-10-15T05:01:09.250Z,97.10
2017-10-15T05:03:38.355Z,97.10
2017-10-15T05:06:07.740Z,97.10
2017-10-15T05:08:36.734Z,97.00
2017-10-15T05:11:06.564Z,97.00
2017-10-15T05:13:35.430Z,96.90
2017-10-15T05:16:04.205Z,97.00
2017-10-15T05:18:33.064Z,97.00
2017-10-15T05:21:02.092Z,97.10
2017-10-15T05:23:31.406Z,97.10
2017-10-15T05:26:00.434Z,97.00
2017-10-15T05:28:29.474Z,97.00
2017-10-15T05:30:58.769Z,96.90
2017-10-15T05:33:27.938Z,97.00
2017-10-15T05:35:57.096Z,97.00
2017-10-15T05:38:27.013Z,97.10
2017-10-15T05:40:57.286Z,97.20
2017-10-15T05:43:26.141Z,97.20
2017-10-15T05:45:55.029Z,97.10
2017-10-15T05:48:23.907Z,97.10
2017-10-15T05:50:53.001Z,97.10
2017-10-15T05:53:22.954Z,97.00
2017-10-15T05:55:51.846Z,97.00
2017-10-15T05:58:20.769Z,96.90
2017-10-15T06:00:49.682Z,97.00
2017-10-15T06:03:19.373Z,97.10
2017-10-15T06:05:49.260Z,97.10
2017-10-15T06:08:18.378Z,97.10
2017-10-15T06:10:47.664Z,97.00
2017-10-15T06:13:16.545Z,97.20
2017-10-15T06:15:45.452Z,97.30
2017-10-15T06:18:14.909Z,97.30
2017-10-15T06:20:44.065Z,97.40
2017-10-15T06:23:13.478Z,97.40
2017-10-15T06:25:43.192Z,97.30
2017-10-15T06:28:12.841Z,97.30
2017-10-15T06:30:41.685Z,97.30
2017-10-15T06:33:11.272Z,97.40
2017-10-15T06:35:41.435Z,97.30
2017-10-15T06:38:10.330Z,97.30
2017-10-15T06:40:39.250Z,97.30
2017-10-15T06:43:08.744Z,97.30
2017-10-15T06:45:37.791Z,97.20
2017-10-15T06:48:06.866Z,97.00
2017-10-15T06:50:36.690Z,96.90
2017-10-15T06:53:06.716Z,96.80
2017-10-15T06:55:35.626Z,96.80
2017-10-15T06:58:04.421Z,96.80
2017-10-15T07:00:33.244Z,96.80
2017-10-15T07:03:02.109Z,96.50
2017-10-15T07:05:31.397Z,96.40
2017-10-15T07:08:00.280Z,96.30
2017-10-15T07:10:29.116Z,96.00
2017-10-15T07:12:58.016Z,95.90
2017-10-15T07:15:27.671Z,95.60
2017-10-15T07:17:56.974Z,95.60
2017-10-15T07:20:26.078Z,95.40
2017-10-15T07:22:54.987Z,95.20
2017-10-15T07:25:24.334Z,95.30
2017-10-15T07:27:53.557Z,95.10
2017-10-15T07:30:22.930Z,94.80
2017-10-15T07:32:51.845Z,94.70
2017-10-15T07:35:20.761Z,94.60
2017-10-15T07:37:50.041Z,94.20
2017-10-15T07:40:19.166Z,94.20
2017-10-15T07:42:48.686Z,94.00
2017-10-15T07:45:18.456Z,93.80
2017-10-15T07:47:47.514Z,93.80
2017-10-15T07:50:16.593Z,93.70
2017-10-15T07:52:46.334Z,92.80
2017-10-15T07:55:15.262Z,92.80
2017-10-15T07:57:44.998Z,91.90
2017-10-15T08:00:15.260Z,91.90
2017-10-15T08:02:46.463Z,91.60
2017-10-15T08:05:18.035Z,90.60
2017-10-15T08:07:50.778Z,90.60
2017-10-15T08:10:23.533Z,90.50
2017-10-15T08:12:56.805Z,90.50
2017-10-15T08:15:29.804Z,90.10
2017-10-15T08:18:01.103Z,89.10
2017-10-15T08:20:31.194Z,88.60
2017-10-15T08:23:00.234Z,88.80
2017-10-15T08:25:29.313Z,88.30
2017-10-15T08:27:58.357Z,89.30
2017-10-15T08:30:27.624Z,87.50
2017-10-15T08:32:56.602Z,87.10
2017-10-15T08:35:25.659Z,87.00
2017-10-15T08:37:55.048Z,86.70
2017-10-15T08:40:24.129Z,86.40
2017-10-15T08:42:54.152Z,85.80
2017-10-15T08:45:23.356Z,85.80
2017-10-15T08:47:52.450Z,84.90
2017-10-15T08:50:22.549Z,84.20
2017-10-15T08:52:51.681Z,83.60
2017-10-15T08:55:21.306Z,82.70
2017-10-15T08:57:50.226Z,82.60
2017-10-15T09:00:19.371Z,82.90
2017-10-15T09:02:49.023Z,83.20
2017-10-15T09:05:19.360Z,83.10
2017-10-15T09:07:48.452Z,80.50
2017-10-15T09:10:17.369Z,81.60
2017-10-15T09:12:46.230Z,80.00
2017-10-15T09:15:15.308Z,78.40
2017-10-15T09:17:44.445Z,78.60
2017-10-15T09:20:13.918Z,77.70
2017-10-15T09:22:43.005Z,75.70
2017-10-15T09:25:11.862Z,76.20
2017-10-15T09:27:41.462Z,75.20
2017-10-15T09:30:10.566Z,74.20
2017-10-15T09:32:40.095Z,74.10
2017-10-15T09:35:09.070Z,72.00
2017-10-15T09:37:37.958Z,72.40
2017-10-15T09:40:07.223Z,70.80
2017-10-15T09:42:36.849Z,69.20
2017-10-15T09:45:06.511Z,69.40
2017-10-15T09:47:35.627Z,69.20
2017-10-15T09:50:04.665Z,69.40
2017-10-15T09:52:33.776Z,68.00
2017-10-15T09:55:02.685Z,68.50
2017-10-15T09:57:31.624Z,66.50
2017-10-15T10:00:00.454Z,66.50
2017-10-15T10:02:29.435Z,66.30
2017-10-15T10:04:58.916Z,65.90
2017-10-15T10:07:27.967Z,64.50
2017-10-15T10:09:56.952Z,64.40
2017-10-15T10:12:26.343Z,64.70
2017-10-15T10:14:55.331Z,63.70
2017-10-15T10:17:24.294Z,62.50
2017-10-15T10:19:53.311Z,63.10
2017-10-15T10:22:22.733Z,62.30
2017-10-15T10:24:51.726Z,61.90
2017-10-15T10:27:20.772Z,61.70
2017-10-15T10:29:49.937Z,61.80
2017-10-15T10:32:19.519Z,61.70
2017-10-15T10:34:48.817Z,61.70
2017-10-15T10:37:17.655Z,60.00
2017-10-15T10:39:46.465Z,59.90
2017-10-15T10:42:15.355Z,59.70
2017-10-15T10:44:44.409Z,59.00
2017-10-15T10:47:15.345Z,56.60
2017-10-15T10:49:46.931Z,56.60
2017-10-15T10:52:22.621Z,56.60
2017-10-15T10:54:52.967Z,56.80
2017-10-15T10:57:22.764Z,57.40
2017-10-15T11:02:26.849Z,56.50
2017-10-15T11:04:55.674Z,55.40
2017-10-15T11:07:24.899Z,55.30
2017-10-15T11:09:54.464Z,54.20
2017-10-15T11:12:23.322Z,54.10
2017-10-15T11:14:52.156Z,53.50
2017-10-15T11:17:20.966Z,53.70
2017-10-15T11:19:50.560Z,54.40
2017-10-15T11:22:21.088Z,54.40
2017-10-15T11:24:51.105Z,54.30
2017-10-15T11:27:20.927Z,53.80
2017-10-15T11:29:50.699Z,54.20
2017-10-15T11:32:19.645Z,54.20
2017-10-15T11:34:48.613Z,54.20
2017-10-15T11:37:18.829Z,54.70
2017-10-15T11:39:48.725Z,53.10
2017-10-15T11:42:17.949Z,53.10
2017-10-15T11:44:47.765Z,54.10
2017-10-15T11:47:18.663Z,54.30
2017-10-15T11:49:49.353Z,54.90
2017-10-15T11:52:18.254Z,54.90
2017-10-15T11:54:47.089Z,54.20
2017-10-15T11:57:16.190Z,55.60
2017-10-15T11:59:46.198Z,55.40
2017-10-15T12:02:15.240Z,55.40
2017-10-15T12:04:44.266Z,56.30
2017-10-15T12:07:13.851Z,56.80
2017-10-15T12:09:42.829Z,56.20
2017-10-15T12:12:11.807Z,55.90
2017-10-15T12:14:41.437Z,56.80
2017-10-15T12:17:11.072Z,56.30
2017-10-15T12:19:40.589Z,57.20
2017-10-15T12:22:09.936Z,57.80
2017-10-15T12:24:38.834Z,58.00
2017-10-15T12:27:08.156Z,58.20
2017-10-15T12:29:37.296Z,58.60
2017-10-15T12:32:06.881Z,59.00
2017-10-15T12:34:36.831Z,59.00
2017-10-15T12:37:05.918Z,59.00
2017-10-15T12:39:35.171Z,59.00
2017-10-15T12:42:04.206Z,59.20
2017-10-15T12:44:33.960Z,59.90
2017-10-15T12:47:03.034Z,59.90
2017-10-15T12:49:32.065Z,60.00
2017-10-15T12:52:01.343Z,59.60
2017-10-15T12:54:30.381Z,59.70
2017-10-15T12:57:00.060Z,60.10
2017-10-15T12:59:29.074Z,60.00
2017-10-15T13:04:26.893Z,58.80
2017-10-15T13:06:55.887Z,58.80
2017-10-15T13:09:25.163Z,58.70
2017-10-15T13:11:53.985Z,58.70
2017-10-15T13:14:23.055Z,58.50
2017-10-15T13:16:52.195Z,59.00
2017-10-15T13:19:21.221Z,59.30
2017-10-15T13:21:51.363Z,59.20
2017-10-15T13:24:35.907Z,59.20
2017-10-15T13:27:06.009Z,59.60
2017-10-15T13:29:36.803Z,59.90
2017-10-15T13:32:06.736Z,60.30
2017-10-15T13:34:35.682Z,60.30
2017-10-15T13:37:04.796Z,60.70
2017-10-15T13:39:34.157Z,61.40
2017-10-15T13:42:04.000Z,60.40
2017-10-15T13:44:33.068Z,60.30
2017-10-15T13:47:02.824Z,60.70
2017-10-15T13:49:31.817Z,60.60
2017-10-15T13:52:01.739Z,61.20
2017-10-15T13:54:30.955Z,62.10
2017-10-15T13:56:59.862Z,62.10
2017-10-15T13:59:29.580Z,63.00
2017-10-15T14:01:59.217Z,62.70
2017-10-15T14:04:28.042Z,62.70
2017-10-15T14:06:56.968Z,62.90
2017-10-15T14:09:26.000Z,62.60
2017-10-15T14:11:55.064Z,62.10
2017-10-15T14:14:24.030Z,62.20
2017-10-15T14:16:53.803Z,62.50
2017-10-15T14:19:22.860Z,62.50
2017-10-15T14:21:53.223Z,62.10
2017-10-15T14:24:22.377Z,61.60
2017-10-15T14:26:51.454Z,61.90
2017-10-15T14:29:21.314Z,62.50
2017-10-15T14:31:50.307Z,62.50
2017-10-15T14:34:19.465Z,62.70
2017-10-15T14:36:48.487Z,62.70
2017-10-15T14:39:17.405Z,62.50
2017-10-15T14:41:46.666Z,62.60
2017-10-15T14:44:15.747Z,62.00
2017-10-15T14:46:44.692Z,62.30
2017-10-15T14:49:14.559Z,61.90
2017-10-15T14:51:43.626Z,62.40
2017-10-15T14:54:13.643Z,62.80
2017-10-15T14:56:43.343Z,62.80
2017-10-15T14:59:13.165Z,62.70
2017-10-15T15:01:42.286Z,62.80
2017-10-15T15:04:11.415Z,63.10
2017-10-15T15:06:41.041Z,63.00
2017-10-15T15:09:10.169Z,63.30
2017-10-15T15:11:39.017Z,62.50
2017-10-15T15:14:08.141Z,62.40
2017-10-15T15:16:38.017Z,62.60
2017-10-15T15:19:07.292Z,62.60
2017-10-15T15:21:36.389Z,63.10
2017-10-15T15:24:05.900Z,63.60
2017-10-15T15:26:35.307Z,64.20
2017-10-15T15:29:04.355Z,64.60
2017-10-15T15:31:33.734Z,65.10
2017-10-15T15:34:03.681Z,65.80
2017-10-15T15:36:33.035Z,65.80
2017-10-15T15:39:02.430Z,66.70
2017-10-15T15:41:31.588Z,67.00
2017-10-15T15:44:01.718Z,66.90
2017-10-15T15:46:31.201Z,67.00
2017-10-15T15:49:01.154Z,67.60
2017-10-15T15:51:30.148Z,67.60
2017-10-15T15:53:58.959Z,68.10
2017-10-15T15:56:28.596Z,68.80
2017-10-15T15:58:57.777Z,68.80
2017-10-15T16:01:27.541Z,69.10
2017-10-15T16:03:57.335Z,69.10
2017-10-15T16:06:26.979Z,69.30
2017-10-15T16:08:56.201Z,69.60
2017-10-15T16:11:26.114Z,69.70
2017-10-15T16:13:56.089Z,69.80
2017-10-15T16:16:24.986Z,70.50
2017-10-15T16:18:54.483Z,70.00
2017-10-15T16:21:23.495Z,70.50
2017-10-15T16:23:52.380Z,70.70
2017-10-15T16:26:23.231Z,71.30
2017-10-15T16:28:54.120Z,71.50
2017-10-15T16:31:24.587Z,71.40
2017-10-15T16:33:54.403Z,72.30
2017-10-15T16:36:23.339Z,72.20
2017-10-15T16:38:52.258Z,72.60
2017-10-15T16:41:21.076Z,72.80
2017-10-15T16:43:51.004Z,73.80
2017-10-15T16:46:19.819Z,73.80
2017-10-15T16:48:49.060Z,74.20
2017-10-15T16:51:18.297Z,74.50
2017-10-15T16:53:47.402Z,74.90
2017-10-15T16:56:16.328Z,75.00
2017-10-15T16:58:46.355Z,75.20
2017-10-15T17:01:15.901Z,75.60
2017-10-15T17:03:44.857Z,76.00
2017-10-15T17:06:14.245Z,76.50
2017-10-15T17:08:43.481Z,76.90
2017-10-15T17:11:12.773Z,77.30
2017-10-15T17:13:42.572Z,78.00
2017-10-15T17:16:11.588Z,78.00
2017-10-15T17:18:40.573Z,78.40
2017-10-15T17:21:09.841Z,78.70
2017-10-15T17:23:39.158Z,78.80
2017-10-15T17:26:08.488Z,79.20
2017-10-15T17:28:37.626Z,80.00
2017-10-15T17:31:06.718Z,79.40
2017-10-15T17:33:36.132Z,79.80
2017-10-15T17:36:05.319Z,80.20
2017-10-15T17:38:34.256Z,80.30
2017-10-15T17:41:03.256Z,80.60
2017-10-15T17:43:32.227Z,80.80
2017-10-15T17:46:01.375Z,81.20
2017-10-15T17:48:30.452Z,81.70
2017-10-15T17:50:59.585Z,82.10
2017-10-15T17:53:28.870Z,82.50
2017-10-15T17:55:58.084Z,82.70
2017-10-15T17:58:27.360Z,83.00
2017-10-15T18:00:57.150Z,83.30
2017-10-15T18:03:27.794Z,83.60
2017-10-15T18:05:57.193Z,83.80
2017-10-15T18:08:26.749Z,84.00
2017-10-15T18:10:57.048Z,84.70
2017-10-15T18:13:26.410Z,84.70
2017-10-15T18:15:56.414Z,85.20
2017-10-15T18:18:25.566Z,85.30
2017-10-15T18:20:55.467Z,85.90
2017-10-15T18:23:25.327Z,85.90
2017-10-15T18:25:54.638Z,86.20
2017-10-15T18:28:23.893Z,86.50
2017-10-15T18:30:53.232Z,86.80
2017-10-15T18:33:23.345Z,87.00
2017-10-15T18:35:52.789Z,87.20
2017-10-15T18:38:21.990Z,87.60
2017-10-15T18:40:51.118Z,87.70
2017-10-15T18:43:20.720Z,88.10
2017-10-15T18:45:52.654Z,88.30
2017-10-15T18:48:23.474Z,88.20
2017-10-15T18:50:53.233Z,88.40
2017-10-15T18:53:23.596Z,89.30
2017-10-15T18:55:53.799Z,89.20
2017-10-15T18:58:24.171Z,89.80
2017-10-15T19:00:55.670Z,89.90
2017-10-15T19:03:25.628Z,89.90
2017-10-15T19:05:57.754Z,90.10
2017-10-15T19:08:29.584Z,90.30
2017-10-15T19:10:59.345Z,90.30
2017-10-15T19:13:30.481Z,90.30
2017-10-15T19:16:00.091Z,90.40
2017-10-15T19:18:29.797Z,90.50
2017-10-15T19:20:59.141Z,90.60
2017-10-15T19:23:28.544Z,90.80
2017-10-15T19:25:57.689Z,90.80
2017-10-15T19:28:27.169Z,91.00
2017-10-15T19:30:56.764Z,91.20
2017-10-15T19:33:26.087Z,91.50
2017-10-15T19:35:55.910Z,91.60
2017-10-15T19:38:25.616Z,91.50
2017-10-15T19:40:55.079Z,91.60
2017-10-15T19:43:26.062Z,91.60
2017-10-15T19:45:55.174Z,91.70
2017-10-15T19:48:24.753Z,91.50
2017-10-15T19:50:53.847Z,91.60
2017-10-15T19:53:23.010Z,91.50
2017-10-15T19:55:53.276Z,91.60
2017-10-15T19:58:22.467Z,91.60
2017-10-15T20:00:51.606Z,91.60
2017-10-15T20:03:20.801Z,91.70
2017-10-15T20:05:50.911Z,91.70
2017-10-15T20:08:20.759Z,91.70
2017-10-15T20:10:50.854Z,91.80
2017-10-15T20:13:21.000Z,91.80
2017-10-15T20:15:50.186Z,91.80
2017-10-15T20:18:20.241Z,91.90
2017-10-15T20:20:49.847Z,91.90
2017-10-15T20:23:19.084Z,91.90
2017-10-15T20:25:48.880Z,91.90
2017-10-15T20:28:19.264Z,91.90
2017-10-15T20:30:48.539Z,92.00
2017-10-15T20:33:18.523Z,92.10
2017-10-15T20:35:47.770Z,92.00
2017-10-15T20:38:17.088Z,92.00
2017-10-15T20:40:46.546Z,92.10
2017-10-15T20:43:21.493Z,92.20
2017-10-15T20:45:52.189Z,92.20
2017-10-15T20:48:21.215Z,92.20
2017-10-15T20:50:51.315Z,92.30
2017-10-15T20:53:20.610Z,92.30
2017-10-15T20:55:49.800Z,92.40
2017-10-15T20:58:19.172Z,92.40
2017-10-15T21:00:48.290Z,92.40
2017-10-15T21:03:17.406Z,92.50
2017-10-15T21:05:47.553Z,92.60
2017-10-15T21:08:17.094Z,92.60
2017-10-15T21:10:47.365Z,92.70
2017-10-15T21:13:18.398Z,92.70
2017-10-15T21:15:49.409Z,92.80
2017-10-15T21:18:19.486Z,92.70
2017-10-15T21:20:49.801Z,92.80
2017-10-15T21:23:19.576Z,93.10
2017-10-15T21:25:48.701Z,93.10
2017-10-15T21:28:19.182Z,93.10
2017-10-15T21:30:53.776Z,93.10
2017-10-15T21:33:23.694Z,93.00
2017-10-15T21:35:53.934Z,92.90
2017-10-15T21:38:22.786Z,92.90
2017-10-15T21:40:51.676Z,92.80
2017-10-15T21:43:20.743Z,92.90
2017-10-15T21:45:50.470Z,93.30
2017-10-15T21:48:19.260Z,93.30
2017-10-15T21:50:50.482Z,93.00
2017-10-15T21:53:20.172Z,92.80
2017-10-15T21:55:50.762Z,92.80
2017-10-15T21:58:20.240Z,92.00
2017-10-15T22:00:52.147Z,92.20
2017-10-15T22:03:22.150Z,92.30
2017-10-15T22:05:51.640Z,92.00
2017-10-15T22:08:20.689Z,92.10
2017-10-15T22:10:50.698Z,92.00
2017-10-15T22:13:20.484Z,91.80
2017-10-15T22:15:49.341Z,91.70
2017-10-15T22:18:22.439Z,92.10
2017-10-15T22:20:55.808Z,91.80
2017-10-15T22:23:24.705Z,92.10
2017-10-15T22:25:53.814Z,92.10
2017-10-15T22:28:22.880Z,92.00
2017-10-15T22:30:52.770Z,92.00
2017-10-15T22:33:22.182Z,92.00
2017-10-15T22:35:51.789Z,92.00
2017-10-15T22:38:21.368Z,92.10
2017-10-15T22:40:50.289Z,92.10
2017-10-15T22:43:19.920Z,92.40
2017-10-15T22:45:49.051Z,92.40
2017-10-15T22:48:17.857Z,92.20
2017-10-15T22:50:46.816Z,92.00
2017-10-15T22:53:15.675Z,91.90
2017-10-15T22:55:44.790Z,92.20
2017-10-15T22:58:13.758Z,92.30
2017-10-15T23:00:43.521Z,92.70
2017-10-15T23:03:12.642Z,92.70
2017-10-15T23:05:42.502Z,92.90
2017-10-15T23:08:11.806Z,92.80
2017-10-15T23:10:40.998Z,93.00
2017-10-15T23:13:09.958Z,93.10
2017-10-15T23:15:39.990Z,93.30
2017-10-15T23:18:08.913Z,93.30
2017-10-15T23:20:37.719Z,93.40
2017-10-15T23:23:08.546Z,93.40
2017-10-15T23:25:37.549Z,93.40
2017-10-15T23:28:07.023Z,93.30
2017-10-15T23:30:36.113Z,93.30
2017-10-15T23:33:05.317Z,93.40
2017-10-15T23:35:34.616Z,93.50
2017-10-15T23:38:03.416Z,93.60
2017-10-15T23:40:32.354Z,93.60
2017-10-15T23:43:01.500Z,93.70
2017-10-15T23:45:30.390Z,93.70
2017-10-15T23:47:59.694Z,93.80
2017-10-15T23:50:28.511Z,93.70
2017-10-15T23:52:58.095Z,93.80
2017-10-15T23:55:26.991Z,93.80
2017-10-15T23:57:55.862Z,93.80
